Terminal Aerodrome Forecast
Issued by NWS Quad Cities IA IL

Home | Current Version | Previous Version | Text Only | Print | Product List | Glossary On
Versions: 1 2 3 4 5 6 7 8 9 10 11 12 13 14 15 16
378
FTUS43 KDVN 241737
TAFMLI
TAF
KMLI 241737Z 2418/2518 24007KT P6SM SCT100 BKN250
     FM242200 29008KT P6SM SCT050 BKN250
     FM250000 31007KT P6SM SCT030 BKN250
     FM250700 32004KT P6SM SCT250=

USA.gov is the U.S. government's official web portal to all federal, state and local government web resources and services.